createdAt,value
2018-08-31T00:01:47.723Z,98363.59
2018-08-31T00:06:41.078Z,98356.17
2018-08-31T00:09:19.103Z,98359.08
2018-08-31T00:12:54.047Z,98350.55
2018-08-31T00:15:22.238Z,98349.17
2018-08-31T00:17:50.526Z,98357.01
2018-08-31T00:20:18.776Z,98353.17
2018-08-31T00:22:46.963Z,98354.42
2018-08-31T00:25:26.444Z,98348.48
2018-08-31T00:28:06.384Z,98351.47
2018-08-31T00:30:46.234Z,98348.86
2018-08-31T00:33:25.778Z,98343.61
2018-08-31T00:38:14.480Z,98340.80
2018-08-31T00:42:57.220Z,98347.05
2018-08-31T00:45:28.995Z,98351.48
2018-08-31T00:47:58.186Z,98348.18
2018-08-31T00:50:26.709Z,98346.93
2018-08-31T00:52:55.389Z,98343.29
2018-08-31T00:55:23.806Z,98345.67
2018-08-31T00:57:52.307Z,98340.20
2018-08-31T01:00:21.087Z,98348.86
2018-08-31T01:02:49.314Z,98344.08
2018-08-31T01:05:17.844Z,98339.42
2018-08-31T01:07:46.317Z,98334.41
2018-08-31T01:10:14.563Z,98325.52
2018-08-31T01:12:42.756Z,98328.22
2018-08-31T01:15:10.960Z,98330.71
2018-08-31T01:17:39.288Z,98338.23
2018-08-31T01:20:08.110Z,98332.09
2018-08-31T01:22:36.540Z,98336.27
2018-08-31T01:25:04.884Z,98324.74
2018-08-31T01:27:33.078Z,98325.89
2018-08-31T01:30:01.966Z,98327.92
2018-08-31T01:32:30.150Z,98328.38
2018-08-31T01:34:58.366Z,98332.86
2018-08-31T01:37:26.768Z,98331.17
2018-08-31T01:39:54.977Z,98328.39
2018-08-31T01:42:23.166Z,98325.98
2018-08-31T01:44:51.361Z,98328.27
2018-08-31T01:47:19.553Z,98329.09
2018-08-31T01:49:47.741Z,98324.87
2018-08-31T01:52:15.921Z,98324.47
2018-08-31T01:54:44.147Z,98326.41
2018-08-31T01:57:12.336Z,98317.98
2018-08-31T01:59:40.741Z,98323.03
2018-08-31T02:02:08.941Z,98317.04
2018-08-31T02:04:37.121Z,98322.88
2018-08-31T02:07:05.461Z,98317.84
2018-08-31T02:09:33.709Z,98310.16
2018-08-31T02:12:01.989Z,98307.11
2018-08-31T02:14:30.181Z,98306.98
2018-08-31T02:16:58.376Z,98309.94
2018-08-31T02:19:26.602Z,98309.94
2018-08-31T02:21:54.838Z,98311.31
2018-08-31T02:24:23.469Z,98307.44
2018-08-31T02:26:51.725Z,98297.53
2018-08-31T02:29:19.902Z,98299.48
2018-08-31T02:31:48.431Z,98298.24
2018-08-31T02:34:16.596Z,98296.26
2018-08-31T02:36:44.828Z,98291.45
2018-08-31T02:39:13.062Z,98293.17
2018-08-31T02:41:41.198Z,98296.49
2018-08-31T02:44:09.379Z,98295.77
2018-08-31T02:46:37.623Z,98291.19
2018-08-31T02:49:05.839Z,98285.50
2018-08-31T02:51:34.090Z,98287.13
2018-08-31T02:54:02.367Z,98284.27
2018-08-31T02:56:30.690Z,98284.10
2018-08-31T02:58:58.866Z,98282.33
2018-08-31T03:01:27.054Z,98273.96
2018-08-31T03:03:55.235Z,98273.73
2018-08-31T03:06:23.425Z,98275.02
2018-08-31T03:08:52.145Z,98278.37
2018-08-31T03:11:20.629Z,98274.70
2018-08-31T03:13:49.093Z,98275.75
2018-08-31T03:16:17.281Z,98265.17
2018-08-31T03:18:45.548Z,98267.55
2018-08-31T03:21:13.740Z,98266.67
2018-08-31T03:23:42.005Z,98255.89
2018-08-31T03:26:10.536Z,98255.07
2018-08-31T03:28:38.797Z,98259.66
2018-08-31T03:31:06.976Z,98257.23
2018-08-31T03:33:35.154Z,98266.78
2018-08-31T03:36:03.488Z,98267.77
2018-08-31T03:38:32.590Z,98260.77
2018-08-31T03:41:00.790Z,98257.02
2018-08-31T03:43:29.011Z,98251.54
2018-08-31T03:45:57.495Z,98251.05
2018-08-31T03:48:25.673Z,98248.17
2018-08-31T03:50:53.856Z,98251.00
2018-08-31T03:53:22.346Z,98261.23
2018-08-31T03:55:50.534Z,98267.84
2018-08-31T03:58:18.895Z,98270.76
2018-08-31T04:00:47.108Z,98268.08
2018-08-31T04:03:15.350Z,98274.98
2018-08-31T04:05:43.539Z,98278.94
2018-08-31T04:08:11.721Z,98278.55
2018-08-31T04:10:39.925Z,98288.14
2018-08-31T04:13:08.165Z,98285.25
2018-08-31T04:15:36.366Z,98284.17
2018-08-31T04:18:04.632Z,98285.77
2018-08-31T04:20:32.876Z,98283.81
2018-08-31T04:23:01.064Z,98287.27
2018-08-31T04:25:29.317Z,98285.05
2018-08-31T04:27:57.809Z,98283.96
2018-08-31T04:30:26.076Z,98280.14
2018-08-31T04:32:54.273Z,98285.41
2018-08-31T04:35:22.448Z,98281.77
2018-08-31T04:37:50.645Z,98285.52
2018-08-31T04:40:18.894Z,98284.14
2018-08-31T04:42:47.144Z,98284.83
2018-08-31T04:45:15.286Z,98281.82
2018-08-31T04:47:43.452Z,98275.19
2018-08-31T04:50:11.776Z,98271.91
2018-08-31T04:52:40.062Z,98268.34
2018-08-31T04:55:08.252Z,98264.92
2018-08-31T04:57:36.430Z,98268.59
2018-08-31T05:00:04.826Z,98273.18
2018-08-31T05:02:33.104Z,98271.22
2018-08-31T05:05:01.706Z,98266.61
2018-08-31T05:07:29.902Z,98262.00
2018-08-31T05:09:58.166Z,98264.27
2018-08-31T05:12:26.371Z,98263.22
2018-08-31T05:14:54.611Z,98259.29
2018-08-31T05:17:22.817Z,98271.13
2018-08-31T05:19:51.005Z,98274.88
2018-08-31T05:22:19.211Z,98272.42
2018-08-31T05:24:47.729Z,98274.61
2018-08-31T05:27:15.921Z,98271.55
2018-08-31T05:29:44.209Z,98269.83
2018-08-31T05:32:12.466Z,98272.06
2018-08-31T05:34:40.633Z,98272.50
2018-08-31T05:37:08.832Z,98276.61
2018-08-31T05:39:37.033Z,98272.89
2018-08-31T05:42:05.223Z,98269.25
2018-08-31T05:44:33.468Z,98260.53
2018-08-31T05:47:02.077Z,98248.20
2018-08-31T05:49:30.248Z,98254.28
2018-08-31T05:51:58.462Z,98254.76
2018-08-31T05:54:26.644Z,98257.16
2018-08-31T05:56:54.830Z,98254.86
2018-08-31T05:59:23.018Z,98256.14
2018-08-31T06:01:51.385Z,98249.02
2018-08-31T06:04:19.660Z,98247.81
2018-08-31T06:06:47.940Z,98254.39
2018-08-31T06:09:16.135Z,98254.11
2018-08-31T06:11:44.414Z,98256.64
2018-08-31T06:14:12.682Z,98250.91
2018-08-31T06:16:40.964Z,98246.81
2018-08-31T06:19:09.213Z,98250.73
2018-08-31T06:21:37.433Z,98255.34
2018-08-31T06:24:05.779Z,98254.28
2018-08-31T06:26:33.957Z,98256.23
2018-08-31T06:29:02.146Z,98251.90
2018-08-31T06:31:31.031Z,98252.66
2018-08-31T06:33:59.407Z,98251.36
2018-08-31T06:36:27.577Z,98244.45
2018-08-31T06:38:55.840Z,98248.55
2018-08-31T06:41:24.106Z,98251.57
2018-08-31T06:43:52.305Z,98256.35
2018-08-31T06:46:20.673Z,98254.02
2018-08-31T06:48:48.853Z,98260.01
2018-08-31T06:51:17.151Z,98263.92
2018-08-31T06:53:45.329Z,98270.53
2018-08-31T06:56:13.617Z,98273.40
2018-08-31T06:58:41.758Z,98279.27
2018-08-31T07:01:10.051Z,98275.66
2018-08-31T07:03:38.569Z,98269.63
2018-08-31T07:06:06.798Z,98267.35
2018-08-31T07:08:35.046Z,98263.05
2018-08-31T07:11:03.214Z,98253.81
2018-08-31T07:13:31.506Z,98249.51
2018-08-31T07:15:59.873Z,98260.21
2018-08-31T07:18:28.057Z,98270.75
2018-08-31T07:20:56.402Z,98278.78
2018-08-31T07:23:24.704Z,98288.91
2018-08-31T07:25:52.885Z,98282.78
2018-08-31T07:28:21.065Z,98284.77
2018-08-31T07:30:49.245Z,98285.80
2018-08-31T07:33:17.829Z,98285.52
2018-08-31T07:35:46.029Z,98289.09
2018-08-31T07:38:14.265Z,98290.14
2018-08-31T07:40:42.446Z,98284.89
2018-08-31T07:43:10.995Z,98287.69
2018-08-31T07:45:39.177Z,98288.38
2018-08-31T07:48:07.775Z,98286.16
2018-08-31T07:50:35.988Z,98285.21
2018-08-31T07:53:04.257Z,98278.39
2018-08-31T07:55:32.429Z,98271.53
2018-08-31T07:58:01.276Z,98265.02
2018-08-31T08:00:29.669Z,98254.77
2018-08-31T08:02:57.881Z,98246.80
2018-08-31T08:05:26.173Z,98244.77
2018-08-31T08:07:54.329Z,98242.54
2018-08-31T08:10:22.900Z,98248.28
2018-08-31T08:12:51.381Z,98256.34
2018-08-31T08:15:19.637Z,98247.50
2018-08-31T08:17:48.422Z,98251.72
2018-08-31T08:20:16.758Z,98255.14
2018-08-31T08:22:45.136Z,98254.77
2018-08-31T08:25:13.316Z,98258.55
2018-08-31T08:27:42.128Z,98257.05
2018-08-31T08:30:10.326Z,98257.55
2018-08-31T08:32:38.738Z,98261.23
2018-08-31T08:35:07.010Z,98261.29
2018-08-31T08:37:35.255Z,98262.05
2018-08-31T08:40:03.478Z,98261.02
2018-08-31T08:42:31.817Z,98253.97
2018-08-31T08:44:59.972Z,98254.42
2018-08-31T08:47:28.218Z,98257.34
2018-08-31T08:49:56.466Z,98259.06
2018-08-31T08:52:24.657Z,98261.59
2018-08-31T08:54:52.842Z,98275.49
2018-08-31T08:57:21.054Z,98273.59
2018-08-31T08:59:49.250Z,98279.43
2018-08-31T09:02:17.498Z,98277.19
2018-08-31T09:04:45.789Z,98278.56
2018-08-31T09:07:16.337Z,98276.61
2018-08-31T09:09:45.065Z,98274.61
2018-08-31T09:12:13.271Z,98277.80
2018-08-31T09:14:41.425Z,98283.09
2018-08-31T09:17:09.605Z,98284.23
2018-08-31T09:19:37.849Z,98281.73
2018-08-31T09:22:06.083Z,98271.02
2018-08-31T09:24:34.347Z,98274.22
2018-08-31T09:27:02.756Z,98270.41
2018-08-31T09:29:31.272Z,98271.45
2018-08-31T09:32:02.963Z,98281.13
2018-08-31T09:34:31.148Z,98282.31
2018-08-31T09:36:59.614Z,98293.37
2018-08-31T09:39:27.806Z,98291.39
2018-08-31T09:41:56.002Z,98287.02
2018-08-31T09:44:24.244Z,98287.48
2018-08-31T09:46:52.531Z,98286.05
2018-08-31T09:49:20.806Z,98282.95
2018-08-31T09:51:48.979Z,98289.83
2018-08-31T09:54:17.192Z,98293.78
2018-08-31T09:56:45.538Z,98293.13
2018-08-31T09:59:13.801Z,98295.07
2018-08-31T10:01:42.090Z,98286.67
2018-08-31T10:04:10.290Z,98291.13
2018-08-31T10:06:38.470Z,98285.35
2018-08-31T10:09:08.092Z,98281.72
2018-08-31T10:11:36.342Z,98275.33
2018-08-31T10:14:04.577Z,98278.20
2018-08-31T10:16:32.784Z,98277.38
2018-08-31T10:19:00.997Z,98278.49
2018-08-31T10:21:29.218Z,98269.25
2018-08-31T10:23:57.506Z,98271.44
2018-08-31T10:26:25.760Z,98262.43
2018-08-31T10:28:54.036Z,98261.75
2018-08-31T10:31:22.240Z,98265.50
2018-08-31T10:33:50.435Z,98262.19
2018-08-31T10:36:18.608Z,98261.94
2018-08-31T10:38:46.858Z,98260.72
2018-08-31T10:41:15.114Z,98266.88
2018-08-31T10:43:43.391Z,98257.03
2018-08-31T10:46:11.632Z,98258.63
2018-08-31T10:48:40.172Z,98268.09
2018-08-31T10:51:08.369Z,98265.11
2018-08-31T10:53:36.618Z,98261.98
2018-08-31T10:56:04.805Z,98268.62
2018-08-31T10:58:33.077Z,98264.96
2018-08-31T11:01:01.542Z,98266.66
2018-08-31T11:03:29.813Z,98264.50
2018-08-31T11:05:58.030Z,98258.55
2018-08-31T11:08:26.273Z,98259.73
2018-08-31T11:10:54.545Z,98262.38
2018-08-31T11:13:22.765Z,98259.75
2018-08-31T11:15:50.993Z,98261.77
2018-08-31T11:18:19.209Z,98257.86
2018-08-31T11:20:47.550Z,98256.47
2018-08-31T11:23:15.741Z,98255.27
2018-08-31T11:25:43.942Z,98255.61
2018-08-31T11:28:12.161Z,98259.34
2018-08-31T11:30:40.344Z,98255.41
2018-08-31T11:33:08.540Z,98256.17
2018-08-31T11:35:36.838Z,98256.88
2018-08-31T11:38:05.128Z,98260.84
2018-08-31T11:40:33.336Z,98255.47
2018-08-31T11:43:01.604Z,98249.09
2018-08-31T11:45:29.799Z,98252.91
2018-08-31T11:47:58.168Z,98258.25
2018-08-31T11:50:26.410Z,98254.91
2018-08-31T11:52:54.634Z,98254.20
2018-08-31T11:55:22.954Z,98250.85
2018-08-31T11:57:51.098Z,98256.06
2018-08-31T12:00:19.363Z,98256.06
2018-08-31T12:02:47.592Z,98254.69
2018-08-31T12:07:43.016Z,98249.16
2018-08-31T12:10:11.206Z,98256.46
2018-08-31T12:12:39.721Z,98252.69
2018-08-31T12:15:08.069Z,98255.28
2018-08-31T12:17:36.259Z,98248.89
2018-08-31T12:20:04.497Z,98261.41
2018-08-31T12:22:32.723Z,98253.89
2018-08-31T12:25:01.259Z,98262.23
2018-08-31T12:27:29.461Z,98260.00
2018-08-31T12:29:57.745Z,98258.77
2018-08-31T12:32:26.029Z,98258.69
2018-08-31T12:34:54.210Z,98261.09
2018-08-31T12:37:22.406Z,98253.81
2018-08-31T12:39:50.645Z,98255.49
2018-08-31T12:42:18.922Z,98257.50
2018-08-31T12:44:47.210Z,98251.36
2018-08-31T12:47:15.392Z,98246.55
2018-08-31T12:49:43.913Z,98244.03
2018-08-31T12:52:12.358Z,98247.78
2018-08-31T12:54:40.608Z,98245.74
2018-08-31T12:57:08.817Z,98247.53
2018-08-31T12:59:37.023Z,98247.89
2018-08-31T13:02:05.259Z,98255.31
2018-08-31T13:04:33.727Z,98248.77
2018-08-31T13:07:01.974Z,98251.56
2018-08-31T13:09:30.114Z,98256.25
2018-08-31T13:11:58.394Z,98254.11
2018-08-31T13:14:26.633Z,98246.85
2018-08-31T13:16:54.873Z,98249.66
2018-08-31T13:19:23.064Z,98241.00
2018-08-31T13:21:51.349Z,98251.44
2018-08-31T13:24:19.621Z,98246.20
2018-08-31T13:26:47.906Z,98242.66
2018-08-31T13:29:16.101Z,98235.98
2018-08-31T13:31:44.349Z,98231.83
2018-08-31T13:34:12.617Z,98236.44
2018-08-31T13:36:41.493Z,98240.95
2018-08-31T13:39:10.149Z,98235.86
2018-08-31T13:41:38.339Z,98230.78
2018-08-31T13:44:06.605Z,98231.94
2018-08-31T13:46:34.825Z,98236.09
2018-08-31T13:49:03.321Z,98236.08
2018-08-31T13:51:31.534Z,98234.76
2018-08-31T13:53:59.712Z,98234.46
2018-08-31T13:56:27.896Z,98240.61
2018-08-31T13:58:56.213Z,98238.56
2018-08-31T14:01:24.430Z,98239.84
2018-08-31T14:03:52.699Z,98240.70
2018-08-31T14:06:21.187Z,98241.09
2018-08-31T14:08:49.658Z,98238.89
2018-08-31T14:11:17.894Z,98242.29
2018-08-31T14:13:46.086Z,98236.27
2018-08-31T14:16:14.271Z,98241.00
2018-08-31T14:18:42.455Z,98239.94
2018-08-31T14:21:10.707Z,98237.19
2018-08-31T14:23:38.841Z,98231.88
2018-08-31T14:26:07.054Z,98245.23
2018-08-31T14:28:35.490Z,98240.19
2018-08-31T14:31:03.931Z,98243.56
2018-08-31T14:33:32.402Z,98242.61
2018-08-31T14:36:00.642Z,98241.88
2018-08-31T14:38:28.855Z,98239.60
2018-08-31T14:40:57.063Z,98243.03
2018-08-31T14:43:25.501Z,98242.34
2018-08-31T14:45:54.079Z,98239.05
2018-08-31T14:48:22.359Z,98240.17
2018-08-31T14:50:50.537Z,98236.70
2018-08-31T14:53:19.207Z,98238.52
2018-08-31T14:55:48.107Z,98234.12
2018-08-31T14:58:16.316Z,98248.78
2018-08-31T15:00:44.706Z,98248.44
2018-08-31T15:03:12.887Z,98242.28
2018-08-31T15:05:41.134Z,98238.77
2018-08-31T15:08:09.596Z,98230.95
2018-08-31T15:10:37.752Z,98240.52
2018-08-31T15:13:05.986Z,98243.26
2018-08-31T15:15:34.252Z,98240.89
2018-08-31T15:18:02.482Z,98237.62
2018-08-31T15:20:30.704Z,98237.62
2018-08-31T15:22:59.154Z,98242.47
2018-08-31T15:25:27.514Z,98239.30
2018-08-31T15:27:55.661Z,98241.36
2018-08-31T15:30:23.914Z,98240.80
2018-08-31T15:32:52.106Z,98242.28
2018-08-31T15:35:20.321Z,98243.78
2018-08-31T15:37:48.597Z,98247.06
2018-08-31T15:40:16.770Z,98241.23
2018-08-31T15:42:45.087Z,98240.66
2018-08-31T15:45:13.257Z,98245.83
2018-08-31T15:47:41.487Z,98245.69
2018-08-31T15:50:09.683Z,98241.79
2018-08-31T15:52:37.953Z,98240.91
2018-08-31T15:55:06.477Z,98232.54
2018-08-31T15:57:34.713Z,98230.10
2018-08-31T16:00:02.957Z,98220.33
2018-08-31T16:02:31.235Z,98220.80
2018-08-31T16:04:59.349Z,98226.68
2018-08-31T16:07:27.522Z,98220.70
2018-08-31T16:09:55.794Z,98218.39
2018-08-31T16:12:24.082Z,98221.59
2018-08-31T16:14:52.266Z,98216.52
2018-08-31T16:17:20.466Z,98218.04
2018-08-31T16:19:48.714Z,98212.83
2018-08-31T16:22:16.918Z,98216.83
2018-08-31T16:24:45.131Z,98218.36
2018-08-31T16:27:13.333Z,98213.97
2018-08-31T16:29:41.565Z,98222.14
2018-08-31T16:32:09.760Z,98223.80
2018-08-31T16:34:37.978Z,98231.52
2018-08-31T16:37:06.173Z,98222.14
2018-08-31T16:39:34.354Z,98219.77
2018-08-31T16:42:02.573Z,98217.02
2018-08-31T16:44:30.761Z,98222.11
2018-08-31T16:46:59.013Z,98223.84
2018-08-31T16:49:27.293Z,98226.55
2018-08-31T16:51:55.474Z,98229.91
2018-08-31T16:54:23.783Z,98234.70
2018-08-31T16:56:52.088Z,98238.91
2018-08-31T16:59:20.278Z,98234.27
2018-08-31T17:01:48.626Z,98239.63
2018-08-31T17:04:16.861Z,98237.74
2018-08-31T17:06:45.107Z,98235.70
2018-08-31T17:09:13.675Z,98232.00
2018-08-31T17:11:41.901Z,98238.16
2018-08-31T17:14:10.200Z,98234.00
2018-08-31T17:16:38.925Z,98235.57
2018-08-31T17:19:07.226Z,98231.27
2018-08-31T17:21:35.655Z,98228.14
2018-08-31T17:24:03.850Z,98239.25
2018-08-31T17:26:37.348Z,98240.19
2018-08-31T17:29:10.820Z,98237.75
2018-08-31T17:31:44.414Z,98241.47
2018-08-31T17:34:17.992Z,98237.43
2018-08-31T17:36:51.606Z,98238.17
2018-08-31T17:39:19.869Z,98237.22
2018-08-31T17:41:48.077Z,98237.52
2018-08-31T17:44:16.270Z,98242.22
2018-08-31T17:46:44.497Z,98234.87
2018-08-31T17:49:12.679Z,98245.81
2018-08-31T17:51:40.949Z,98259.23
2018-08-31T17:54:09.145Z,98252.88
2018-08-31T17:56:37.493Z,98250.20
2018-08-31T17:59:05.974Z,98248.33
2018-08-31T18:01:34.266Z,98247.52
2018-08-31T18:04:02.712Z,98248.02
2018-08-31T18:06:30.872Z,98246.82
2018-08-31T18:08:59.056Z,98248.94
2018-08-31T18:11:27.340Z,98253.39
2018-08-31T18:13:55.626Z,98254.69
2018-08-31T18:16:23.931Z,98256.26
2018-08-31T18:18:52.193Z,98261.89
2018-08-31T18:21:20.481Z,98269.23
2018-08-31T18:23:48.658Z,98271.02
2018-08-31T18:26:16.848Z,98270.84
2018-08-31T18:28:45.046Z,98271.70
2018-08-31T18:31:13.213Z,98270.80
2018-08-31T18:33:41.429Z,98271.84
2018-08-31T18:36:09.645Z,98267.60
2018-08-31T18:38:37.862Z,98273.01
2018-08-31T18:41:06.301Z,98273.45
2018-08-31T18:43:34.820Z,98279.08
2018-08-31T18:46:03.124Z,98277.19
2018-08-31T18:48:31.394Z,98274.75
2018-08-31T18:50:59.677Z,98276.44
2018-08-31T18:53:28.053Z,98277.68
2018-08-31T18:55:56.373Z,98278.41
2018-08-31T18:58:24.700Z,98277.09
2018-08-31T19:00:52.890Z,98280.58
2018-08-31T19:03:21.153Z,98284.63
2018-08-31T19:05:49.461Z,98293.87
2018-08-31T19:08:17.707Z,98297.89
2018-08-31T19:10:45.974Z,98293.92
2018-08-31T19:13:14.230Z,98292.88
2018-08-31T19:15:42.433Z,98288.12
2018-08-31T19:18:10.613Z,98291.25
2018-08-31T19:20:38.831Z,98286.92
2018-08-31T19:23:07.445Z,98292.03
2018-08-31T19:25:35.621Z,98289.81
2018-08-31T19:28:03.950Z,98281.90
2018-08-31T19:30:32.772Z,98285.53
2018-08-31T19:33:01.242Z,98292.23
2018-08-31T19:35:29.442Z,98281.74
2018-08-31T19:37:57.696Z,98286.66
2018-08-31T19:40:25.878Z,98289.40
2018-08-31T19:42:54.066Z,98289.60
2018-08-31T19:45:22.252Z,98286.64
2018-08-31T19:47:50.450Z,98290.18
2018-08-31T19:50:18.702Z,98288.95
2018-08-31T19:52:46.898Z,98286.33
2018-08-31T19:55:15.094Z,98290.76
2018-08-31T19:57:43.364Z,98297.20
2018-08-31T20:00:11.553Z,98297.89
2018-08-31T20:02:39.784Z,98288.59
2018-08-31T20:05:08.290Z,98290.50
2018-08-31T20:07:36.530Z,98290.12
2018-08-31T20:10:04.968Z,98298.63
2018-08-31T20:12:33.344Z,98301.17
2018-08-31T20:15:01.521Z,98304.34
2018-08-31T20:17:29.713Z,98308.98
2018-08-31T20:19:58.062Z,98304.44
2018-08-31T20:22:26.309Z,98291.99
2018-08-31T20:24:54.521Z,98301.90
2018-08-31T20:27:22.712Z,98302.97
2018-08-31T20:29:50.930Z,98295.09
2018-08-31T20:32:19.116Z,98294.78
2018-08-31T20:34:47.385Z,98299.09
2018-08-31T20:37:15.640Z,98297.72
2018-08-31T20:39:43.912Z,98293.91
2018-08-31T20:42:12.491Z,98298.22
2018-08-31T20:44:40.666Z,98295.49
2018-08-31T20:47:09.015Z,98298.42
2018-08-31T20:49:37.276Z,98300.25
2018-08-31T20:52:05.738Z,98295.27
2018-08-31T20:54:33.957Z,98303.27
2018-08-31T20:57:02.165Z,98307.88
2018-08-31T20:59:30.356Z,98309.19
2018-08-31T21:01:58.789Z,98306.94
2018-08-31T21:04:27.009Z,98309.92
2018-08-31T21:06:55.339Z,98310.41
2018-08-31T21:09:23.516Z,98316.02
2018-08-31T21:11:51.745Z,98311.31
2018-08-31T21:14:20.037Z,98318.59
2018-08-31T21:16:48.281Z,98317.92
2018-08-31T21:19:16.565Z,98320.55
2018-08-31T21:21:44.749Z,98321.46
2018-08-31T21:24:13.003Z,98324.50
2018-08-31T21:26:41.205Z,98327.41
2018-08-31T21:29:09.665Z,98322.50
2018-08-31T21:31:37.933Z,98325.52
2018-08-31T21:34:06.617Z,98326.89
2018-08-31T21:36:34.806Z,98325.37
2018-08-31T21:39:03.137Z,98323.94
2018-08-31T21:41:31.374Z,98332.45
2018-08-31T21:43:59.624Z,98329.22
2018-08-31T21:46:27.892Z,98323.29
2018-08-31T21:48:56.330Z,98322.34
2018-08-31T21:51:24.557Z,98323.30
2018-08-31T21:53:52.733Z,98324.40
2018-08-31T21:56:21.037Z,98323.03
2018-08-31T21:58:49.304Z,98328.21
2018-08-31T22:01:22.918Z,98320.91
2018-08-31T22:03:51.153Z,98319.08
2018-08-31T22:06:19.374Z,98312.43
2018-08-31T22:08:47.625Z,98307.62
2018-08-31T22:11:15.855Z,98313.02
2018-08-31T22:13:44.367Z,98311.52
2018-08-31T22:16:12.566Z,98323.82
2018-08-31T22:18:40.809Z,98328.30
2018-08-31T22:21:08.993Z,98328.25
2018-08-31T22:23:37.179Z,98321.48
2018-08-31T22:26:05.449Z,98321.91
2018-08-31T22:28:33.627Z,98317.48
2018-08-31T22:31:01.857Z,98324.77
2018-08-31T22:33:30.049Z,98323.37
2018-08-31T22:35:58.242Z,98328.19
2018-08-31T22:38:26.944Z,98322.85
2018-08-31T22:40:55.110Z,98324.44
2018-08-31T22:43:28.600Z,98325.75
2018-08-31T22:45:56.753Z,98330.88
2018-08-31T22:48:24.924Z,98327.86
2018-08-31T22:50:53.262Z,98330.66
2018-08-31T22:53:21.553Z,98318.67
2018-08-31T22:55:49.724Z,98318.00
2018-08-31T22:58:17.935Z,98319.77
2018-08-31T23:00:46.122Z,98315.20
2018-08-31T23:03:14.393Z,98316.56
2018-08-31T23:05:42.696Z,98318.17
2018-08-31T23:08:10.853Z,98317.15
2018-08-31T23:10:39.021Z,98323.13
2018-08-31T23:13:07.674Z,98324.55
2018-08-31T23:15:35.894Z,98320.26
2018-08-31T23:18:04.403Z,98315.14
2018-08-31T23:20:32.977Z,98309.73
2018-08-31T23:23:06.583Z,98316.14
2018-08-31T23:25:40.378Z,98310.66
2018-08-31T23:28:08.961Z,98318.52
2018-08-31T23:30:37.224Z,98318.52
2018-08-31T23:33:05.467Z,98310.92
2018-08-31T23:35:33.672Z,98306.75
2018-08-31T23:38:01.843Z,98303.64
2018-08-31T23:40:30.029Z,98313.55
2018-08-31T23:42:58.249Z,98314.09
2018-08-31T23:45:26.791Z,98315.29
2018-08-31T23:47:55.275Z,98313.30
2018-08-31T23:50:23.534Z,98319.31
2018-08-31T23:52:51.722Z,98312.58
2018-08-31T23:55:20.002Z,98320.47
2018-08-31T23:57:48.264Z,98316.81
